Maersk Chicago — WMCS — position and weather

sailwx.info

Track history (hours):
 
Tides and Currents Weather Stations Pressure Air Temp Water Temp Dewpoint Dewpoint Depression Visibility Wind Speed Wind Dir Waves Ship Positions

Maersk Chicago

Owner: Maersk Line, Limited, Norfolk, VA. More information available from US FCC via Universal Licensing System and Coast Guard Vessel Documentation Center.

Last reported at 2018-May-23 09:30 UTC. Time now 2018-May-23 09:47 UTC.
Position N 29°36' W 094°57'.

Length 299 m; draft 10.7 m.

Type: Ship (hazmat cat A). MMSI: 338408000.

Date/timePositionNaut miles runAvg speedWind from/ knotsBaromVisibWave heightAir tempDewpointWater temp
2018-May-23 09:30N 29°36' W 094°57'510.7
2018-May-23 09:00N 29°32' W 094°54'611.3
2018-May-23 08:30N 29°27' W 094°50'611.7
2018-May-23 08:00N 29°22' W 094°48'611.6
2018-May-23 07:30N 29°20' W 094°41'611.1
2018-May-23 07:00N 29°17' W 094°35'5 9.9
2018-May-23 06:30N 29°15' W 094°31'3 6.6
2018-May-23 06:00N 29°12' W 094°28'4 8.5
2018-May-23 05:30N 29°09' W 094°25'917.0
2018-May-23 04:57N 28°60' W 094°25'715.0
2018-May-23 04:28N 28°56' W 094°18'816.5
2018-May-23 03:57N 28°54' W 094°09'816.8
2018-May-23 03:27N 28°51' W 093°60'816.7
2018-May-23 03:00N 28°50' W 093°51'1116.3
2018-May-23 02:21N 28°44' W 093°41'616.2
2018-May-23 01:59N 28°40' W 093°35'1016.5
2018-May-23 01:24N 28°35' W 093°27'716.2
2018-May-23 00:59N 28°31' W 093°20'21715.5
2018-May-22 11:00N 26°42' W 089°48'30117.7 090 / 111014.210.8 23.022.327.0
2018-May-21 18:00N 24°42' W 084°42'25812.9 100 / 131014.910.8 29.023.228.0
2018-May-20 21:59N 25°24' W 080°00'612.6
2018-May-20 21:30N 25°30' W 079°60'612.6
2018-May-20 21:00N 25°36' W 079°58'612.6
2018-May-20 20:30N 25°42' W 079°57'612.8
2018-May-20 20:00N 25°48' W 079°57'612.8
2018-May-20 19:30N 25°55' W 079°56'612.7
2018-May-20 19:00N 26°01' W 079°56'612.7
2018-May-20 18:30N 26°07' W 079°55'612.6
2018-May-20 18:00N 26°14' W 079°55'612.4
2018-May-20 17:30N 26°20' W 079°55'815.6
2018-May-20 17:00N 26°12' W 079°54'141367.4 110 / 201017.5 5.4 25.022.026.0
2018-May-20 16:59N 26°26' W 079°53'18 9.5
2018-May-20 15:04N 26°44' W 079°52'2 9.3
2018-May-20 14:49N 26°46' W 079°52'3 9.1
2018-May-20 14:30N 26°49' W 079°51'4 9.0
2018-May-20 14:00N 26°54' W 079°51'4 8.9
2018-May-20 13:30N 26°58' W 079°51'4 8.9
2018-May-20 13:00N 27°03' W 079°52'5 8.9
2018-May-20 12:30N 27°07' W 079°52'18510.0
2018-May-19 18:00N 30°12' W 079°54'10113.1 160 / 181018.0 1.1 24.022.526.0
2018-May-19 10:20N 31°48' W 080°30'514.9
2018-May-19 09:58N 31°53' W 080°32'714.7
2018-May-19 09:30N 31°57' W 080°39'611.6
2018-May-19 09:00N 31°59' W 080°45'714.8
2018-May-19 08:30N 32°02' W 080°53'612.4
2018-May-19 08:00N 32°05' W 080°59'4 8.8
2018-May-19 07:30N 32°05' W 081°05'3 6.0
2018-May-19 07:00N 32°07' W 081°07'1 2.4
2018-May-19 06:30N 32°08' W 081°08'0 0.0
2018-May-19 05:58N 32°08' W 081°08'0 0.0
2018-May-19 05:28N 32°08' W 081°08'0 0.0
2018-May-19 04:58N 32°08' W 081°08'0 0.0
2018-May-19 04:28N 32°08' W 081°08'0 0.0
2018-May-19 03:52N 32°08' W 081°08'0 0.0
2018-May-19 03:22N 32°08' W 081°08'0 0.0
2018-May-19 02:58N 32°08' W 081°08'0 0.0
2018-May-19 02:28N 32°08' W 081°08'0 0.0
2018-May-19 01:52N 32°08' W 081°08'0 0.0
2018-May-19 01:28N 32°08' W 081°08'0 0.0
2018-May-19 00:58N 32°08' W 081°08'0 0.0
2018-May-19 00:28N 32°08' W 081°08'0 0.0
2018-May-18 23:58N 32°08' W 081°08'0 0.0
2018-May-18 23:28N 32°08' W 081°08'0 0.0
2018-May-18 22:58N 32°08' W 081°08'0 0.0
2018-May-18 22:28N 32°08' W 081°08'0 0.0
2018-May-18 21:58N 32°08' W 081°08'0 0.0
2018-May-18 21:28N 32°08' W 081°08'0 0.0
2018-May-18 20:46N 32°08' W 081°08'0 0.0
2018-May-18 20:28N 32°08' W 081°08'0 0.0
2018-May-18 19:58N 32°08' W 081°08'0 0.0
2018-May-18 19:28N 32°08' W 081°08'0 0.0
2018-May-18 18:46N 32°08' W 081°08'0 0.0
2018-May-18 18:28N 32°08' W 081°08'0 0.0
2018-May-18 17:58N 32°08' W 081°08'0 0.0
2018-May-18 17:22N 32°08' W 081°08'0 0.0
2018-May-18 16:58N 32°08' W 081°08'0 0.0
2018-May-18 16:28N 32°08' W 081°08'0 0.0
2018-May-18 15:58N 32°08' W 081°08'0 0.0
2018-May-18 15:22N 32°08' W 081°08'0 0.0
2018-May-18 14:58N 32°08' W 081°08'0 0.0
2018-May-18 14:28N 32°08' W 081°08'0 0.9
2018-May-18 14:00N 32°08' W 081°08'2 3.3
2018-May-18 13:30N 32°07' W 081°07'3 5.6
2018-May-18 13:00N 32°05' W 081°05'5 9.2
2018-May-18 12:30N 32°05' W 080°59'510.5
2018-May-18 12:00N 32°02' W 080°55'612.7
2018-May-18 11:30N 32°00' W 080°47'713.2
2018-May-18 11:00N 31°58' W 080°40'4 8.3
2018-May-18 10:30N 31°57' W 080°35'510.6
2018-May-18 10:00N 31°57' W 080°29'814.4
2018-May-18 09:29N 31°59' W 080°20'914.4
2018-May-18 08:52N 32°03' W 080°11'240 6.3
2018-May-16 18:38N 34°13' W 076°11'215.1
2018-May-16 18:29N 34°15' W 076°09'1014.7
2018-May-16 17:50N 34°21' W 075°60'514.8
2018-May-16 17:28N 34°23' W 075°54'714.9
2018-May-16 16:59N 34°28' W 075°47'714.8
2018-May-16 16:30N 34°33' W 075°41'14213.5
2018-May-16 06:00N 36°42' W 074°30'17214.8 210 / 221016.910.8 17.017.013.0
2018-May-15 18:20N 39°32' W 073°52'913.5
2018-May-15 17:38N 39°41' W 073°51'313.5
2018-May-15 17:27N 39°44' W 073°51'613.5
2018-May-15 16:59N 39°50' W 073°51'1113.6
2018-May-15 16:12N 40°00' W 073°50'413.6
2018-May-15 15:54N 40°05' W 073°50'2811.9
2018-May-15 13:34N 40°31' W 074°00'213.0
2018-May-15 13:26N 40°33' W 074°02'410.5
2018-May-15 13:00N 40°37' W 074°03'3 6.6
2018-May-15 12:30N 40°39' W 074°07'2 3.2
2018-May-15 12:00N 40°40' W 074°09'0 0.4
2018-May-15 11:30N 40°40' W 074°09'0 0.0
2018-May-15 10:59N 40°40' W 074°09'0 0.0
2018-May-15 10:29N 40°40' W 074°09'0 0.0
2018-May-15 09:59N 40°40' W 074°09'0 0.0
2018-May-15 09:29N 40°40' W 074°09'0 0.0
2018-May-15 08:59N 40°40' W 074°09'0 0.0
2018-May-15 08:29N 40°40' W 074°09'0 0.0
2018-May-15 07:59N 40°40' W 074°09'0 0.0
2018-May-15 07:30N 40°40' W 074°09'0 0.0
2018-May-15 06:59N 40°40' W 074°09'0 0.0
2018-May-15 06:29N 40°40' W 074°09'0 0.0
2018-May-15 05:59N 40°40' W 074°09'0 0.0
2018-May-15 05:29N 40°40' W 074°09'0 0.0
2018-May-15 04:59N 40°40' W 074°09'0 0.0
2018-May-15 04:29N 40°40' W 074°09'0 0.0
2018-May-15 03:59N 40°40' W 074°09'0 0.0
2018-May-15 03:26N 40°40' W 074°09'0 0.0
2018-May-15 02:59N 40°40' W 074°09'0 0.0
2018-May-15 02:29N 40°40' W 074°09'0 0.0
2018-May-15 01:59N 40°40' W 074°09'0 0.0
2018-May-15 01:29N 40°40' W 074°09'0 0.0
2018-May-15 00:59N 40°40' W 074°09'0 0.0
2018-May-15 00:29N 40°40' W 074°09'0 0.0
2018-May-14 23:59N 40°40' W 074°09'0 0.0
2018-May-14 23:29N 40°40' W 074°09'0 0.0
2018-May-14 22:59N 40°40' W 074°09'0 0.0
2018-May-14 22:29N 40°40' W 074°09'0 0.0
2018-May-14 21:59N 40°40' W 074°09'0 0.0
2018-May-14 21:29N 40°40' W 074°09'0 0.0
2018-May-14 20:59N 40°40' W 074°09'0 0.0
2018-May-14 20:29N 40°40' W 074°09'0 0.0
2018-May-14 19:59N 40°40' W 074°09'0 0.0
2018-May-14 19:29N 40°40' W 074°09'0 0.0
2018-May-14 18:59N 40°40' W 074°09'0 0.0
2018-May-14 18:29N 40°40' W 074°09'0 0.0
2018-May-14 17:59N 40°40' W 074°09'0 0.0
2018-May-14 17:29N 40°40' W 074°09'0 0.0
2018-May-14 16:59N 40°40' W 074°09'0 0.0
2018-May-14 16:29N 40°40' W 074°09'0 0.0
2018-May-14 15:59N 40°40' W 074°09'0 0.0
2018-May-14 15:29N 40°40' W 074°09'0 0.0
2018-May-14 14:59N 40°40' W 074°09'0 0.0
2018-May-14 14:29N 40°40' W 074°09'0 0.0
2018-May-14 13:59N 40°40' W 074°09'0 0.0
2018-May-14 13:29N 40°40' W 074°09'0 0.0
2018-May-14 12:59N 40°40' W 074°09'0 0.0
2018-May-14 12:29N 40°40' W 074°09'0 0.0
2018-May-14 11:59N 40°40' W 074°09'0 0.0
2018-May-14 11:29N 40°40' W 074°09'0 0.0
2018-May-14 10:59N 40°40' W 074°09'0 0.0
2018-May-14 10:29N 40°40' W 074°09'0 0.0
2018-May-14 09:59N 40°40' W 074°09'0 0.0
2018-May-14 09:31N 40°40' W 074°09'1 2.5
2018-May-14 08:59N 40°39' W 074°08'4 7.4
2018-May-14 08:31N 40°38' W 074°03'612.4
2018-May-14 08:00N 40°32' W 074°01'713.0
2018-May-14 07:30N 40°29' W 073°54'  
Track history (hours):
 
Tides and Currents Weather Stations Pressure Air Temp Water Temp Dewpoint Dewpoint Depression Visibility Wind Speed Wind Dir Waves Ship Positions

Maersk Chicago

Owner: Maersk Line, Limited, Norfolk, VA. More information available from US FCC via Universal Licensing System and Coast Guard Vessel Documentation Center.

Last reported at 2018-May-23 09:30 UTC. Time now 2018-May-23 09:47 UTC.
Position N 29°36' W 094°57'.

Length 299 m; draft 10.7 m.

Type: Ship (hazmat cat A). MMSI: 338408000.

Date/timePositionNaut miles runAvg speedWind from/ knotsBaromVisibWave heightAir tempDewpointWater temp
2018-May-23 09:30N 29°36' W 094°57'510.7
2018-May-23 09:00N 29°32' W 094°54'611.3
2018-May-23 08:30N 29°27' W 094°50'611.7
2018-May-23 08:00N 29°22' W 094°48'611.6
2018-May-23 07:30N 29°20' W 094°41'611.1
2018-May-23 07:00N 29°17' W 094°35'5 9.9
2018-May-23 06:30N 29°15' W 094°31'3 6.6
2018-May-23 06:00N 29°12' W 094°28'4 8.5
2018-May-23 05:30N 29°09' W 094°25'917.0
2018-May-23 04:57N 28°60' W 094°25'715.0
2018-May-23 04:28N 28°56' W 094°18'816.5
2018-May-23 03:57N 28°54' W 094°09'816.8
2018-May-23 03:27N 28°51' W 093°60'816.7
2018-May-23 03:00N 28°50' W 093°51'1116.3
2018-May-23 02:21N 28°44' W 093°41'616.2
2018-May-23 01:59N 28°40' W 093°35'1016.5
2018-May-23 01:24N 28°35' W 093°27'716.2
2018-May-23 00:59N 28°31' W 093°20'21715.5
2018-May-22 11:00N 26°42' W 089°48'30117.7 090 / 111014.210.8 23.022.327.0
2018-May-21 18:00N 24°42' W 084°42'25812.9 100 / 131014.910.8 29.023.228.0
2018-May-20 21:59N 25°24' W 080°00'612.6
2018-May-20 21:30N 25°30' W 079°60'612.6
2018-May-20 21:00N 25°36' W 079°58'612.6
2018-May-20 20:30N 25°42' W 079°57'612.8
2018-May-20 20:00N 25°48' W 079°57'612.8
2018-May-20 19:30N 25°55' W 079°56'612.7
2018-May-20 19:00N 26°01' W 079°56'612.7
2018-May-20 18:30N 26°07' W 079°55'612.6
2018-May-20 18:00N 26°14' W 079°55'612.4
2018-May-20 17:30N 26°20' W 079°55'815.6
2018-May-20 17:00N 26°12' W 079°54'141367.4 110 / 201017.5 5.4 25.022.026.0
2018-May-20 16:59N 26°26' W 079°53'18 9.5
2018-May-20 15:04N 26°44' W 079°52'2 9.3
2018-May-20 14:49N 26°46' W 079°52'3 9.1
2018-May-20 14:30N 26°49' W 079°51'4 9.0
2018-May-20 14:00N 26°54' W 079°51'4 8.9
2018-May-20 13:30N 26°58' W 079°51'4 8.9
2018-May-20 13:00N 27°03' W 079°52'5 8.9
2018-May-20 12:30N 27°07' W 079°52'18510.0
2018-May-19 18:00N 30°12' W 079°54'10113.1 160 / 181018.0 1.1 24.022.526.0
2018-May-19 10:20N 31°48' W 080°30'514.9
2018-May-19 09:58N 31°53' W 080°32'714.7
2018-May-19 09:30N 31°57' W 080°39'611.6
2018-May-19 09:00N 31°59' W 080°45'714.8
2018-May-19 08:30N 32°02' W 080°53'612.4
2018-May-19 08:00N 32°05' W 080°59'4 8.8
2018-May-19 07:30N 32°05' W 081°05'3 6.0
2018-May-19 07:00N 32°07' W 081°07'1 2.4
2018-May-19 06:30N 32°08' W 081°08'0 0.0
2018-May-19 05:58N 32°08' W 081°08'0 0.0
2018-May-19 05:28N 32°08' W 081°08'0 0.0
2018-May-19 04:58N 32°08' W 081°08'0 0.0
2018-May-19 04:28N 32°08' W 081°08'0 0.0
2018-May-19 03:52N 32°08' W 081°08'0 0.0
2018-May-19 03:22N 32°08' W 081°08'0 0.0
2018-May-19 02:58N 32°08' W 081°08'0 0.0
2018-May-19 02:28N 32°08' W 081°08'0 0.0
2018-May-19 01:52N 32°08' W 081°08'0 0.0
2018-May-19 01:28N 32°08' W 081°08'0 0.0
2018-May-19 00:58N 32°08' W 081°08'0 0.0
2018-May-19 00:28N 32°08' W 081°08'0 0.0
2018-May-18 23:58N 32°08' W 081°08'0 0.0
2018-May-18 23:28N 32°08' W 081°08'0 0.0
2018-May-18 22:58N 32°08' W 081°08'0 0.0
2018-May-18 22:28N 32°08' W 081°08'0 0.0
2018-May-18 21:58N 32°08' W 081°08'0 0.0
2018-May-18 21:28N 32°08' W 081°08'0 0.0
2018-May-18 20:46N 32°08' W 081°08'0 0.0
2018-May-18 20:28N 32°08' W 081°08'0 0.0
2018-May-18 19:58N 32°08' W 081°08'0 0.0
2018-May-18 19:28N 32°08' W 081°08'0 0.0
2018-May-18 18:46N 32°08' W 081°08'0 0.0
2018-May-18 18:28N 32°08' W 081°08'0 0.0
2018-May-18 17:58N 32°08' W 081°08'0 0.0
2018-May-18 17:22N 32°08' W 081°08'0 0.0
2018-May-18 16:58N 32°08' W 081°08'0 0.0
2018-May-18 16:28N 32°08' W 081°08'0 0.0
2018-May-18 15:58N 32°08' W 081°08'0 0.0
2018-May-18 15:22N 32°08' W 081°08'0 0.0
2018-May-18 14:58N 32°08' W 081°08'0 0.0
2018-May-18 14:28N 32°08' W 081°08'0 0.9
2018-May-18 14:00N 32°08' W 081°08'2 3.3
2018-May-18 13:30N 32°07' W 081°07'3 5.6
2018-May-18 13:00N 32°05' W 081°05'5 9.2
2018-May-18 12:30N 32°05' W 080°59'510.5
2018-May-18 12:00N 32°02' W 080°55'612.7
2018-May-18 11:30N 32°00' W 080°47'713.2
2018-May-18 11:00N 31°58' W 080°40'4 8.3
2018-May-18 10:30N 31°57' W 080°35'510.6
2018-May-18 10:00N 31°57' W 080°29'814.4
2018-May-18 09:29N 31°59' W 080°20'914.4
2018-May-18 08:52N 32°03' W 080°11'240 6.3
2018-May-16 18:38N 34°13' W 076°11'215.1
2018-May-16 18:29N 34°15' W 076°09'1014.7
2018-May-16 17:50N 34°21' W 075°60'514.8
2018-May-16 17:28N 34°23' W 075°54'714.9
2018-May-16 16:59N 34°28' W 075°47'714.8
2018-May-16 16:30N 34°33' W 075°41'14213.5
2018-May-16 06:00N 36°42' W 074°30'17214.8 210 / 221016.910.8 17.017.013.0
2018-May-15 18:20N 39°32' W 073°52'913.5
2018-May-15 17:38N 39°41' W 073°51'313.5
2018-May-15 17:27N 39°44' W 073°51'613.5
2018-May-15 16:59N 39°50' W 073°51'1113.6
2018-May-15 16:12N 40°00' W 073°50'413.6
2018-May-15 15:54N 40°05' W 073°50'2811.9
2018-May-15 13:34N 40°31' W 074°00'213.0
2018-May-15 13:26N 40°33' W 074°02'410.5
2018-May-15 13:00N 40°37' W 074°03'3 6.6
2018-May-15 12:30N 40°39' W 074°07'2 3.2
2018-May-15 12:00N 40°40' W 074°09'0 0.4
2018-May-15 11:30N 40°40' W 074°09'0 0.0
2018-May-15 10:59N 40°40' W 074°09'0 0.0
2018-May-15 10:29N 40°40' W 074°09'0 0.0
2018-May-15 09:59N 40°40' W 074°09'0 0.0
2018-May-15 09:29N 40°40' W 074°09'0 0.0
2018-May-15 08:59N 40°40' W 074°09'0 0.0
2018-May-15 08:29N 40°40' W 074°09'0 0.0
2018-May-15 07:59N 40°40' W 074°09'0 0.0
2018-May-15 07:30N 40°40' W 074°09'0 0.0
2018-May-15 06:59N 40°40' W 074°09'0 0.0
2018-May-15 06:29N 40°40' W 074°09'0 0.0
2018-May-15 05:59N 40°40' W 074°09'0 0.0
2018-May-15 05:29N 40°40' W 074°09'0 0.0
2018-May-15 04:59N 40°40' W 074°09'0 0.0
2018-May-15 04:29N 40°40' W 074°09'0 0.0
2018-May-15 03:59N 40°40' W 074°09'0 0.0
2018-May-15 03:26N 40°40' W 074°09'0 0.0
2018-May-15 02:59N 40°40' W 074°09'0 0.0
2018-May-15 02:29N 40°40' W 074°09'0 0.0
2018-May-15 01:59N 40°40' W 074°09'0 0.0
2018-May-15 01:29N 40°40' W 074°09'0 0.0
2018-May-15 00:59N 40°40' W 074°09'0 0.0
2018-May-15 00:29N 40°40' W 074°09'0 0.0
2018-May-14 23:59N 40°40' W 074°09'0 0.0
2018-May-14 23:29N 40°40' W 074°09'0 0.0
2018-May-14 22:59N 40°40' W 074°09'0 0.0
2018-May-14 22:29N 40°40' W 074°09'0 0.0
2018-May-14 21:59N 40°40' W 074°09'0 0.0
2018-May-14 21:29N 40°40' W 074°09'0 0.0
2018-May-14 20:59N 40°40' W 074°09'0 0.0
2018-May-14 20:29N 40°40' W 074°09'0 0.0
2018-May-14 19:59N 40°40' W 074°09'0 0.0
2018-May-14 19:29N 40°40' W 074°09'0 0.0
2018-May-14 18:59N 40°40' W 074°09'0 0.0
2018-May-14 18:29N 40°40' W 074°09'0 0.0
2018-May-14 17:59N 40°40' W 074°09'0 0.0
2018-May-14 17:29N 40°40' W 074°09'0 0.0
2018-May-14 16:59N 40°40' W 074°09'0 0.0
2018-May-14 16:29N 40°40' W 074°09'0 0.0
2018-May-14 15:59N 40°40' W 074°09'0 0.0
2018-May-14 15:29N 40°40' W 074°09'0 0.0
2018-May-14 14:59N 40°40' W 074°09'0 0.0
2018-May-14 14:29N 40°40' W 074°09'0 0.0
2018-May-14 13:59N 40°40' W 074°09'0 0.0
2018-May-14 13:29N 40°40' W 074°09'0 0.0
2018-May-14 12:59N 40°40' W 074°09'0 0.0
2018-May-14 12:29N 40°40' W 074°09'0 0.0
2018-May-14 11:59N 40°40' W 074°09'0 0.0
2018-May-14 11:29N 40°40' W 074°09'0 0.0
2018-May-14 10:59N 40°40' W 074°09'0 0.0
2018-May-14 10:29N 40°40' W 074°09'0 0.0
2018-May-14 09:59N 40°40' W 074°09'0 0.0
2018-May-14 09:31N 40°40' W 074°09'1 2.5
2018-May-14 08:59N 40°39' W 074°08'4 7.4
2018-May-14 08:31N 40°38' W 074°03'612.4
2018-May-14 08:00N 40°32' W 074°01'713.0
2018-May-14 07:30N 40°29' W 073°54'  

Dump ship's entire track history